KMLI/MLI METAR and TAF weather

Enter ICAO airport designator
Station Type Date Time Source
KMLI METAR 2020/01/24 09:34 UTC NOAA

KMLI 240934Z AUTO 05006KT 5SM -SN BR OVC005 01/M01 A2984 RMK AO2 P0001 T00111006


Station Type Date Time Source
KMLI Decoded METAR 2020/01/24 09:34 UTC NOAA

MOLINE QUAD-CITY AIRPORT, IL, United States (KMLI) 41-27N 90-31W 184M
Jan 24, 2020 - 04:34 AM EST / 2020.01.24 0934 UTC
Wind: from the NE (050 degrees) at 7 MPH (6 KT):0
Visibility: 5 mile(s):0
Sky conditions: overcast
Weather: light snow; mist
Precipitation last hour: 0.01 inches
Temperature: 34.0 F (1.1 C)
Windchill: 28 F (-2 C):1
Dew Point: 30.9 F (-0.6 C)
Relative Humidity: 88%
Pressure (altimeter): 29.84 in. Hg (1010 hPa)
ob: KMLI 240934Z AUTO 05006KT 5SM -SN BR OVC005 01/M01 A2984 RMK AO2 P0001 T00111006
cycle: 9

Station Type Date Time Source
KMLI TAF 2020/01/24 08:28 UTC NOAA

TAF
AMD KMLI 240826Z 2408/2506 06008KT 1SM -SN BR OVC005
FM241000 01009KT 3SM -SN BR OVC003
FM241300 34010KT 3SM -SN BR OVC005
FM242000 34010KT 5SM BR OVC006

Example: see airport list